»·PEaware :: AAL3034 KDEN-KSLC

AAL3034 :: KDEN-KSLC

FLIGHT INFORMATION

Flight Status: Arrived
Operator:
American Airlines
More flights by this operator :: More flights under this callsign
Pilot: Majd A. (32168)
Aircraft: BOEING 737-800
(B738)
More flights by this aircraft type
Origin: KDEN Denver Intl
United States
Destination: KSLC Salt Lake City Intl
United States
More flights between these airports :: More routes between these airports
Route: ZIMMR2 CHNGY EKR LEEHY5
File this flight plan on PilotEdge
Remarks: RMK / SIMBRIEF
Altitude:
(Current/Filed)
38,000ft
Speed:
(Current/Filed)
457kts
Departed: 24-Oct-20 07:28 PM
Arrived: 24-Oct-20 08:33 PM
Distance/Time
Traveled:
339nm/1:05
Distance/Time
To Go:
Arrived

Flight Plot

Page will automatically refresh every two minutes.

Flight plan parsing failed; only flown route is shown


Map Options




Map Legend


Flown Route
Filed Route
Departure Airport
Arrival Airport
Navaid (VOR, NDB)
Fix

Horizontal Profiles

Position Reports

Time Latitude Longitude Heading Altitude Ground
Speed
24-Oct-20 19:06 39.854337 -104.675763 180 5444ft 0kts
24-Oct-20 19:07 39.854337 -104.675763 180 5444ft 0kts
24-Oct-20 19:08 39.854337 -104.675763 180 5444ft 0kts
24-Oct-20 19:09 39.854337 -104.675763 180 5444ft 0kts
24-Oct-20 19:10 39.854337 -104.675763 180 5444ft 0kts
24-Oct-20 19:11 39.854337 -104.675763 180 5444ft 0kts
24-Oct-20 19:12 39.854337 -104.675763 180 5444ft 0kts
24-Oct-20 19:13 39.854337 -104.675763 180 5444ft 0kts
24-Oct-20 19:14 39.854337 -104.675763 180 5444ft 0kts
24-Oct-20 19:15 39.854337 -104.675763 180 5444ft 0kts
24-Oct-20 19:16 39.854337 -104.675763 180 5444ft 0kts
24-Oct-20 19:17 39.854337 -104.675763 180 5444ft 0kts
24-Oct-20 19:18 39.854337 -104.675763 180 5444ft 0kts
24-Oct-20 19:19 39.854749 -104.675758 180 5444ft 2kts
24-Oct-20 19:19 39.855199 -104.675506 243 5444ft 2kts
24-Oct-20 19:21 39.855240 -104.675225 270 5444ft 0kts
24-Oct-20 19:21 39.855240 -104.675225 270 5444ft 0kts
24-Oct-20 19:22 39.855241 -104.675391 270 5444ft 4kts
24-Oct-20 19:24 39.855980 -104.680955 272 5444ft 21kts
24-Oct-20 19:24 39.858423 -104.685128 1 5444ft 23kts
24-Oct-20 19:25 39.864253 -104.685575 282 5444ft 2kts
24-Oct-20 19:26 39.864639 -104.687183 350 5444ft 10kts
24-Oct-20 19:28 39.902769 -104.686628 2 6660ft 171kts
24-Oct-20 19:28 39.943418 -104.708675 292 7707ft 251kts
24-Oct-20 19:29 39.933192 -104.793240 267 10009ft 286kts
24-Oct-20 19:30 39.932126 -104.899235 270 10878ft 323kts
24-Oct-20 19:31 39.934760 -105.017966 271 14434ft 329kts
24-Oct-20 19:32 39.937582 -105.138067 270 17802ft 334kts
24-Oct-20 19:33 39.942344 -105.260424 274 20684ft 342kts
24-Oct-20 19:34 39.952154 -105.384624 274 23192ft 351kts
24-Oct-20 19:35 39.962296 -105.513722 275 25344ft 362kts
24-Oct-20 19:36 39.972435 -105.645341 275 27264ft 371kts
24-Oct-20 19:37 39.979811 -105.780374 273 29114ft 378kts
24-Oct-20 19:38 39.986430 -105.915589 273 31412ft 369kts
24-Oct-20 19:39 39.992896 -106.046930 273 33577ft 357kts
24-Oct-20 19:40 39.999077 -106.174695 273 35356ft 351kts
24-Oct-20 19:41 40.005054 -106.301007 273 36800ft 349kts
24-Oct-20 19:42 40.010849 -106.426337 273 37937ft 350kts
24-Oct-20 19:43 40.016347 -106.555906 273 37918ft 354kts
24-Oct-20 19:44 40.021684 -106.683512 272 37915ft 353kts
24-Oct-20 19:45 40.027000 -106.811779 273 37914ft 354kts
24-Oct-20 19:46 40.032323 -106.939987 273 37916ft 355kts
24-Oct-20 19:47 40.037570 -107.069018 273 37920ft 357kts
24-Oct-20 19:48 40.042663 -107.197791 273 37923ft 356kts
24-Oct-20 19:49 40.047577 -107.325613 273 37923ft 357kts
24-Oct-20 19:50 40.052467 -107.456505 273 37908ft 356kts
24-Oct-20 19:51 40.057125 -107.585200 273 37897ft 356kts
24-Oct-20 19:52 40.061581 -107.714302 272 37893ft 357kts
24-Oct-20 19:53 40.065918 -107.844659 272 37891ft 367kts
24-Oct-20 19:54 40.070548 -107.978936 273 37888ft 368kts
24-Oct-20 19:55 40.076211 -108.111933 273 37890ft 367kts
24-Oct-20 19:56 40.082168 -108.245248 273 37890ft 368kts
24-Oct-20 19:57 40.088060 -108.378561 273 37889ft 367kts
24-Oct-20 19:58 40.093780 -108.511105 273 37888ft 367kts
24-Oct-20 19:59 40.099391 -108.644575 273 37868ft 367kts
24-Oct-20 20:00 40.104695 -108.777850 272 37850ft 368kts
24-Oct-20 20:01 40.109863 -108.911825 272 37839ft 367kts
24-Oct-20 20:02 40.114467 -109.046489 272 37835ft 369kts
24-Oct-20 20:03 40.119403 -109.182094 273 37835ft 372kts
24-Oct-20 20:04 40.124279 -109.317165 273 37835ft 373kts
24-Oct-20 20:05 40.128999 -109.451770 273 37835ft 372kts
24-Oct-20 20:06 40.133591 -109.587149 273 37835ft 373kts
24-Oct-20 20:07 40.137948 -109.722546 272 37835ft 373kts
24-Oct-20 20:08 40.142134 -109.858093 272 37835ft 372kts
24-Oct-20 20:09 40.146211 -109.992670 272 37835ft 373kts
24-Oct-20 20:10 40.150190 -110.128726 272 37827ft 372kts
24-Oct-20 20:11 40.148743 -110.263621 269 37833ft 364kts
24-Oct-20 20:12 40.147251 -110.393233 270 37762ft 363kts
24-Oct-20 20:13 40.145993 -110.525288 270 36262ft 353kts
24-Oct-20 20:14 40.144671 -110.657135 269 34511ft 369kts
24-Oct-20 20:15 40.143059 -110.789870 269 31641ft 364kts
24-Oct-20 20:16 40.141403 -110.922623 269 28640ft 369kts
24-Oct-20 20:17 40.139625 -111.057537 269 25735ft 373kts
24-Oct-20 20:18 40.137653 -111.192955 268 22937ft 368kts
24-Oct-20 20:19 40.134904 -111.325983 267 20295ft 351kts
24-Oct-20 20:20 40.132485 -111.450656 267 17861ft 337kts
24-Oct-20 20:21 40.140307 -111.569658 287 16009ft 336kts
24-Oct-20 20:22 40.182852 -111.682642 302 15997ft 350kts
24-Oct-20 20:23 40.248733 -111.776065 310 15260ft 339kts
24-Oct-20 20:24 40.317328 -111.858973 318 13005ft 331kts
24-Oct-20 20:25 40.393080 -111.923141 338 11028ft 322kts
24-Oct-20 20:26 40.473609 -111.938310 350 10487ft 278kts
24-Oct-20 20:27 40.554010 -111.947590 351 9998ft 267kts
24-Oct-20 20:28 40.619497 -111.955227 350 8844ft 221kts
24-Oct-20 20:29 40.683576 -111.962596 353 5940ft 220kts
24-Oct-20 20:30 40.731615 -111.968131 353 5102ft 146kts
24-Oct-20 20:31 40.772134 -111.972767 354 4323ft 146kts
24-Oct-20 20:32 40.794397 -111.975853 334 4226ft 35kts
24-Oct-20 20:33 40.795631 -111.977321 245 4226ft 0kts
24-Oct-20 20:34 40.793546 -111.977500 174 4225ft 16kts
24-Oct-20 20:35 40.788485 -111.976918 175 4226ft 21kts
24-Oct-20 20:36 40.784059 -111.978001 299 4230ft 7kts

Navigation Log

Ident Type
Flight plan parsing failed, navigation log unavailable